Harper Woods, Michigan
Current Conditions -  °F | °C
As of 12:53 PM on Sunday 23 Nov 2014 (Local Time) from KDET Reporting Station
Overcast Overcast  
Wind Chill: 52°   Ceiling: 9500
Heat Index: 52°   Visibility: 10mi
Dew Point: 44°   Wind: 9mph
Humidity: 74%   Direction: 190°S
Pressure: 29.85"   Gusts: NA
Location:  42.43°N, 82.92°W
Report Text: KDET 231753Z 19008KT 10SM SCT080 OVC095 11/07 A2985 RMK AO2 SLP111 60001 T01110067 10111 20078 58035
Loading
Personal Weather Stations






























Interactive Weather Map New forecast layout! Learn more

10-Day Weather Forecast

Advertisements
Track Severe Weather on mobile